Pozo, California
Current Conditions -  °F | °C
As of 9:51 AM on Saturday 25 Oct 2014 (Local Time) from KSMX Reporting Station
Few Clouds Few Clouds  
Wind Chill: 69°   Ceiling: Unl
Heat Index: 69°   Visibility: 10mi
Dew Point: 54°   Wind: 0mph
Humidity: 58%   Direction: NA
Pressure: 30.09"   Gusts: NA
Location:  35.235°N, 120.021°W
Report Text: KSMX 251651Z 00000KT 10SM FEW200 21/12 A3009 RMK AO2 SLP190 T02060122
Loading
Personal Weather Stations






























Interactive Weather Map
Tropical Storm Tracking
New forecast layout! Learn more

10-Day Weather Forecast

Advertisements
Track Severe Weather on mobile